createdAt,value
2022-09-07T00:01:09.131Z,1.90
2022-09-07T00:03:37.463Z,1.90
2022-09-07T00:06:08.375Z,1.97
2022-09-07T00:08:36.931Z,1.80
2022-09-07T00:11:08.329Z,1.87
2022-09-07T00:13:39.887Z,2.13
2022-09-07T00:16:09.591Z,2.00
2022-09-07T00:18:40.345Z,1.70
2022-09-07T00:21:13.043Z,1.87
2022-09-07T00:23:41.548Z,1.70
2022-09-07T00:26:13.778Z,2.33
2022-09-07T00:28:44.266Z,1.70
2022-09-07T00:31:14.394Z,1.40
2022-09-07T00:33:42.832Z,1.57
2022-09-07T00:36:11.011Z,1.90
2022-09-07T00:38:39.528Z,2.00
2022-09-07T00:41:07.978Z,1.93
2022-09-07T00:43:38.590Z,1.60
2022-09-07T00:46:13.235Z,1.80
2022-09-07T00:48:46.957Z,1.70
2022-09-07T00:51:20.120Z,1.87
2022-09-07T00:53:53.719Z,1.70
2022-09-07T00:56:25.611Z,1.90
2022-09-07T00:58:54.247Z,1.87
2022-09-07T01:01:24.172Z,1.70
2022-09-07T01:03:54.675Z,2.10
2022-09-07T01:06:25.869Z,1.53
2022-09-07T01:08:56.140Z,1.90
2022-09-07T01:11:24.621Z,2.30
2022-09-07T01:13:54.524Z,1.87
2022-09-07T01:16:37.320Z,1.73
2022-09-07T01:19:22.601Z,2.03
2022-09-07T01:22:04.980Z,1.90
2022-09-07T01:24:58.237Z,1.90
2022-09-07T01:27:59.049Z,1.87
2022-09-07T01:30:30.435Z,1.90
2022-09-07T01:33:38.227Z,1.63
2022-09-07T01:36:17.471Z,1.80
2022-09-07T01:38:48.165Z,2.00
2022-09-07T01:41:21.574Z,2.40
2022-09-07T01:43:54.171Z,1.90
2022-09-07T01:46:27.901Z,2.27
2022-09-07T01:49:00.771Z,2.37
2022-09-07T01:51:33.055Z,2.10
2022-09-07T01:54:07.388Z,2.00
2022-09-07T01:56:40.008Z,2.27
2022-09-07T01:59:15.090Z,1.90
2022-09-07T02:01:51.196Z,1.90
2022-09-07T02:04:23.431Z,2.03
2022-09-07T02:07:00.002Z,1.97
2022-09-07T02:09:34.425Z,1.90
2022-09-07T02:12:06.895Z,2.27
2022-09-07T02:14:39.363Z,2.40
2022-09-07T02:17:14.548Z,2.50
2022-09-07T02:19:47.831Z,2.33
2022-09-07T02:22:19.832Z,2.30
2022-09-07T02:24:52.152Z,1.80
2022-09-07T02:27:25.382Z,2.20
2022-09-07T02:29:54.177Z,2.00
2022-09-07T02:32:23.774Z,2.43
2022-09-07T02:34:51.980Z,2.07
2022-09-07T02:37:22.381Z,2.43
2022-09-07T02:39:50.678Z,2.20
2022-09-07T02:42:18.745Z,2.23
2022-09-07T02:44:48.047Z,2.27
2022-09-07T02:47:27.867Z,2.57
2022-09-07T02:50:10.854Z,2.20
2022-09-07T02:52:47.221Z,2.57
2022-09-07T02:55:27.779Z,2.73
2022-09-07T02:58:06.523Z,2.47
2022-09-07T03:00:42.977Z,2.20
2022-09-07T03:03:23.190Z,2.30
2022-09-07T03:05:56.344Z,2.30
2022-09-07T03:08:26.916Z,2.20
2022-09-07T03:10:56.747Z,2.80
2022-09-07T03:13:27.195Z,2.37
2022-09-07T03:15:56.502Z,2.93
2022-09-07T03:18:27.277Z,2.33
2022-09-07T03:20:55.999Z,2.40
2022-09-07T03:23:24.930Z,2.77
2022-09-07T03:25:53.015Z,2.67
2022-09-07T03:28:21.034Z,2.60
2022-09-07T03:30:49.240Z,2.50
2022-09-07T03:33:18.194Z,3.00
2022-09-07T03:35:58.538Z,2.57
2022-09-07T03:38:26.693Z,2.87
2022-09-07T03:41:01.873Z,2.80
2022-09-07T03:43:30.960Z,2.67
2022-09-07T03:46:00.059Z,2.40
2022-09-07T03:48:29.148Z,3.47
2022-09-07T03:51:00.274Z,2.90
2022-09-07T03:53:31.004Z,2.70
2022-09-07T03:56:00.722Z,3.20
2022-09-07T03:58:30.867Z,2.60
2022-09-07T04:00:59.659Z,3.00
2022-09-07T04:03:28.483Z,2.77
2022-09-07T04:05:58.956Z,2.40
2022-09-07T04:08:28.953Z,2.80
2022-09-07T04:10:57.887Z,2.97
2022-09-07T04:13:26.729Z,2.87
2022-09-07T04:15:55.052Z,2.60
2022-09-07T04:18:23.519Z,3.07
2022-09-07T04:20:52.355Z,2.80
2022-09-07T04:23:21.094Z,3.30
2022-09-07T04:25:51.603Z,2.67
2022-09-07T04:28:21.536Z,2.97
2022-09-07T04:30:49.743Z,2.77
2022-09-07T04:33:18.458Z,3.30
2022-09-07T04:35:46.706Z,2.80
2022-09-07T04:38:17.775Z,2.87
2022-09-07T04:40:45.894Z,3.10
2022-09-07T04:43:15.254Z,3.10
2022-09-07T04:45:43.388Z,3.53
2022-09-07T04:48:11.601Z,2.70
2022-09-07T04:50:39.638Z,2.67
2022-09-07T04:53:07.845Z,3.00
2022-09-07T04:55:35.978Z,3.20
2022-09-07T04:58:04.173Z,2.97
2022-09-07T05:00:33.669Z,3.10
2022-09-07T05:03:01.749Z,3.60
2022-09-07T05:05:29.790Z,3.47
2022-09-07T05:07:57.941Z,3.27
2022-09-07T05:10:25.978Z,3.37
2022-09-07T05:12:54.091Z,3.57
2022-09-07T05:15:23.296Z,3.60
2022-09-07T05:17:53.196Z,3.33
2022-09-07T05:20:21.536Z,3.33
2022-09-07T05:22:49.784Z,3.23
2022-09-07T05:25:17.888Z,4.10
2022-09-07T05:27:46.002Z,3.33
2022-09-07T05:33:05.120Z,3.30
2022-09-07T05:35:33.199Z,2.97
2022-09-07T05:38:01.266Z,3.17
2022-09-07T05:40:36.101Z,3.30
2022-09-07T05:43:06.552Z,3.03
2022-09-07T05:45:34.646Z,3.53
2022-09-07T05:48:04.460Z,3.10
2022-09-07T05:50:33.786Z,3.47
2022-09-07T05:53:01.970Z,2.50
2022-09-07T05:55:31.727Z,2.90
2022-09-07T05:57:59.933Z,3.03
2022-09-07T06:00:28.939Z,2.90
2022-09-07T06:02:57.086Z,2.70
2022-09-07T06:05:26.722Z,3.00
2022-09-07T06:07:54.913Z,2.50
2022-09-07T06:13:11.185Z,2.60
2022-09-07T06:15:39.248Z,2.93
2022-09-07T06:18:07.385Z,2.23
2022-09-07T06:20:36.738Z,2.60
2022-09-07T06:23:04.837Z,2.87
2022-09-07T06:25:32.892Z,3.13
2022-09-07T06:28:01.101Z,2.80
2022-09-07T06:30:29.416Z,2.53
2022-09-07T06:32:57.468Z,3.50
2022-09-07T06:35:25.906Z,2.80
2022-09-07T06:37:55.579Z,2.70
2022-09-07T06:40:23.928Z,2.90
2022-09-07T06:42:52.125Z,2.60
2022-09-07T06:45:20.221Z,2.03
2022-09-07T06:47:48.349Z,2.77
2022-09-07T06:50:17.724Z,2.40
2022-09-07T06:55:35.212Z,2.23
2022-09-07T06:58:03.313Z,2.37
2022-09-07T07:00:31.412Z,2.60
2022-09-07T07:02:59.693Z,2.47
2022-09-07T07:05:28.086Z,2.70
2022-09-07T07:07:56.366Z,2.40
2022-09-07T07:10:25.208Z,2.73
2022-09-07T07:12:58.407Z,3.50
2022-09-07T07:15:28.883Z,3.63
2022-09-07T07:18:05.140Z,3.30
2022-09-07T07:20:43.012Z,2.30
2022-09-07T07:23:12.894Z,2.50
2022-09-07T07:25:41.015Z,2.83
2022-09-07T07:30:59.552Z,2.30
2022-09-07T07:33:31.268Z,2.53
2022-09-07T07:36:12.508Z,2.27
2022-09-07T07:44:15.963Z,2.37
2022-09-07T07:46:44.229Z,2.33
2022-09-07T07:49:12.286Z,2.27
2022-09-07T07:54:28.380Z,2.43
2022-09-07T07:56:56.395Z,3.10
2022-09-07T07:59:25.990Z,2.80
2022-09-07T08:01:54.127Z,2.33
2022-09-07T08:04:22.996Z,2.27
2022-09-07T08:06:51.046Z,2.90
2022-09-07T08:09:18.993Z,2.13
2022-09-07T08:11:47.077Z,2.07
2022-09-07T08:14:15.720Z,2.80
2022-09-07T08:16:45.409Z,2.33
2022-09-07T08:19:13.755Z,2.30
2022-09-07T08:21:41.654Z,2.30
2022-09-07T08:24:09.723Z,2.63
2022-09-07T08:26:37.589Z,1.90
2022-09-07T08:29:05.626Z,2.90
2022-09-07T08:31:33.554Z,2.17
2022-09-07T08:34:02.949Z,2.33
2022-09-07T08:36:31.786Z,2.73
2022-09-07T08:38:59.920Z,2.73
2022-09-07T08:41:52.288Z,2.30
2022-09-07T08:44:24.980Z,2.27
2022-09-07T08:46:57.290Z,2.40
2022-09-07T08:49:34.474Z,2.50
2022-09-07T08:52:05.829Z,2.27
2022-09-07T08:54:34.084Z,2.47
2022-09-07T08:59:58.896Z,2.30
2022-09-07T09:02:28.241Z,2.43
2022-09-07T09:07:53.739Z,2.53
2022-09-07T09:10:33.415Z,2.50
2022-09-07T09:13:07.858Z,2.47
2022-09-07T09:15:55.672Z,2.80
2022-09-07T09:18:40.026Z,2.10
2022-09-07T09:21:14.908Z,1.97
2022-09-07T09:23:44.569Z,2.50
2022-09-07T09:26:18.874Z,2.37
2022-09-07T09:28:47.185Z,2.43
2022-09-07T09:31:19.351Z,2.43
2022-09-07T09:34:09.651Z,2.27
2022-09-07T09:36:46.813Z,2.47
2022-09-07T09:39:29.360Z,1.90
2022-09-07T09:42:00.730Z,2.00
2022-09-07T09:44:32.949Z,2.60
2022-09-07T09:49:53.521Z,3.10
2022-09-07T09:52:30.166Z,2.87
2022-09-07T09:55:17.272Z,2.20
2022-09-07T10:01:21.241Z,2.57
2022-09-07T10:06:17.897Z,2.80
2022-09-07T10:08:56.162Z,2.00
2022-09-07T10:14:31.693Z,2.30
2022-09-07T10:17:02.047Z,2.15
2022-09-07T10:19:36.036Z,2.10
2022-09-07T10:22:06.426Z,1.98
2022-09-07T10:24:39.939Z,2.13
2022-09-07T10:27:21.627Z,2.20
2022-09-07T10:29:49.991Z,1.80
2022-09-07T10:32:28.835Z,2.05
2022-09-07T10:35:08.801Z,1.90
2022-09-07T10:37:48.633Z,2.38
2022-09-07T10:40:29.397Z,2.25
2022-09-07T10:43:22.123Z,2.30
2022-09-07T10:49:20.279Z,3.10
2022-09-07T10:52:01.261Z,2.13
2022-09-07T10:54:36.921Z,2.33
2022-09-07T10:57:23.004Z,2.42
2022-09-07T11:00:12.238Z,2.47
2022-09-07T11:05:59.638Z,2.40
2022-09-07T11:14:24.709Z,2.35
2022-09-07T11:16:56.317Z,2.25
2022-09-07T11:19:37.635Z,2.40
2022-09-07T11:22:20.397Z,2.08
2022-09-07T11:27:46.494Z,2.22
2022-09-07T11:30:21.782Z,1.95
2022-09-07T11:33:12.158Z,2.13
2022-09-07T11:35:49.712Z,2.05
2022-09-07T11:38:26.851Z,2.08
2022-09-07T11:41:18.578Z,1.77
2022-09-07T11:43:50.340Z,1.90
2022-09-07T11:46:27.289Z,1.90
2022-09-07T11:48:56.679Z,1.98
2022-09-07T11:51:33.524Z,1.85
2022-09-07T11:54:18.269Z,1.73
2022-09-07T11:56:51.452Z,1.80
2022-09-07T11:59:37.741Z,1.38
2022-09-07T12:02:58.375Z,1.70
2022-09-07T12:05:45.852Z,1.75
2022-09-07T12:08:37.475Z,1.60
2022-09-07T12:11:25.195Z,2.00
2022-09-07T12:14:12.673Z,2.13
2022-09-07T12:16:56.159Z,1.80
2022-09-07T12:19:27.660Z,1.92
2022-09-07T12:21:57.689Z,1.60
2022-09-07T12:24:37.147Z,1.77
2022-09-07T12:27:06.187Z,1.60
2022-09-07T12:29:34.673Z,1.63
2022-09-07T12:32:53.148Z,2.20
2022-09-07T12:34:57.825Z,1.55
2022-09-07T12:37:41.070Z,1.80
2022-09-07T12:40:58.608Z,1.42
2022-09-07T12:43:34.202Z,1.55
2022-09-07T12:46:02.812Z,1.67
2022-09-07T12:48:46.603Z,1.98
2022-09-07T12:54:21.478Z,1.65
2022-09-07T13:00:00.704Z,1.58
2022-09-07T13:07:01.736Z,1.58
2022-09-07T13:09:27.386Z,1.63
2022-09-07T13:11:55.630Z,1.48
2022-09-07T13:14:27.636Z,1.52
2022-09-07T13:17:29.845Z,1.70
2022-09-07T13:20:39.672Z,1.50
2022-09-07T13:23:34.215Z,1.50
2022-09-07T13:26:04.657Z,1.60
2022-09-07T13:28:56.788Z,1.58
2022-09-07T13:31:44.211Z,1.50
2022-09-07T13:34:43.825Z,1.52
2022-09-07T13:37:22.951Z,1.75
2022-09-07T13:39:56.011Z,1.50
2022-09-07T13:42:27.303Z,1.45
2022-09-07T13:44:59.182Z,1.30
2022-09-07T13:47:45.681Z,1.17
2022-09-07T13:50:25.128Z,1.50
2022-09-07T13:53:24.339Z,1.35
2022-09-07T13:56:02.022Z,1.20
2022-09-07T13:58:34.762Z,1.10
2022-09-07T14:01:06.869Z,1.58
2022-09-07T14:03:48.669Z,1.40
2022-09-07T14:06:33.122Z,1.48
2022-09-07T14:09:03.459Z,1.73
2022-09-07T14:11:41.826Z,2.47
2022-09-07T14:14:16.381Z,1.50
2022-09-07T14:16:46.779Z,1.20
2022-09-07T14:19:20.109Z,1.58
2022-09-07T14:22:02.034Z,1.20
2022-09-07T14:24:33.741Z,1.90
2022-09-07T14:27:04.142Z,1.92
2022-09-07T14:29:33.824Z,1.38
2022-09-07T14:32:04.098Z,1.58
2022-09-07T14:34:35.766Z,1.58
2022-09-07T14:37:07.846Z,1.50
2022-09-07T14:39:39.517Z,1.58
2022-09-07T14:42:11.547Z,1.67
2022-09-07T14:44:42.967Z,1.98
2022-09-07T14:47:24.768Z,1.88
2022-09-07T14:49:54.172Z,1.50
2022-09-07T14:52:31.117Z,1.83
2022-09-07T14:54:59.395Z,1.60
2022-09-07T14:57:32.286Z,2.60
2022-09-07T15:00:20.724Z,2.60
2022-09-07T15:02:48.827Z,1.70
2022-09-07T15:05:26.013Z,1.70
2022-09-07T15:07:56.643Z,1.48
2022-09-07T15:10:37.450Z,1.40
2022-09-07T15:13:22.627Z,1.70
2022-09-07T15:15:59.306Z,1.80
2022-09-07T15:18:55.885Z,1.45
2022-09-07T15:21:25.733Z,1.73
2022-09-07T15:23:54.667Z,1.73
2022-09-07T15:29:13.794Z,1.30
2022-09-07T15:31:49.749Z,1.45
2022-09-07T15:34:22.464Z,1.55
2022-09-07T15:36:52.511Z,2.00
2022-09-07T15:39:22.622Z,2.92
2022-09-07T15:41:51.652Z,1.80
2022-09-07T15:44:25.173Z,2.20
2022-09-07T15:49:49.143Z,1.38
2022-09-07T15:52:18.661Z,1.80
2022-09-07T15:54:46.674Z,1.80
2022-09-07T16:00:06.059Z,2.28
2022-09-07T16:05:31.175Z,2.50
2022-09-07T16:10:53.562Z,1.85
2022-09-07T16:13:23.808Z,1.50
2022-09-07T16:15:53.136Z,2.00
2022-09-07T16:18:21.287Z,1.80
2022-09-07T16:20:52.656Z,2.03
2022-09-07T16:23:21.229Z,2.10
2022-09-07T16:25:59.697Z,1.90
2022-09-07T16:28:28.699Z,2.55
2022-09-07T16:30:58.359Z,1.70
2022-09-07T16:33:33.047Z,1.77
2022-09-07T16:36:07.120Z,1.77
2022-09-07T16:38:50.906Z,1.70
2022-09-07T16:41:20.885Z,1.48
2022-09-07T16:43:48.846Z,2.13
2022-09-07T16:46:19.954Z,2.45
2022-09-07T16:48:48.247Z,1.80
2022-09-07T16:51:19.641Z,1.80
2022-09-07T16:53:48.785Z,2.20
2022-09-07T16:56:18.306Z,1.80
2022-09-07T16:58:48.456Z,1.60
2022-09-07T17:01:20.414Z,1.67
2022-09-07T17:03:50.078Z,1.77
2022-09-07T17:06:20.155Z,1.70
2022-09-07T17:08:48.356Z,1.50
2022-09-07T17:11:18.268Z,2.00
2022-09-07T17:13:46.931Z,1.70
2022-09-07T17:16:16.729Z,1.85
2022-09-07T17:21:36.158Z,3.30
2022-09-07T17:24:05.952Z,1.87
2022-09-07T17:26:34.222Z,1.80
2022-09-07T17:29:02.407Z,3.50
2022-09-07T17:34:21.305Z,1.90
2022-09-07T17:36:49.311Z,3.47
2022-09-07T17:39:18.768Z,2.10
2022-09-07T17:41:47.560Z,2.83
2022-09-07T17:44:16.594Z,3.10
2022-09-07T17:46:44.856Z,1.70
2022-09-07T17:49:14.401Z,2.13
2022-09-07T17:51:44.069Z,2.40
2022-09-07T17:54:14.528Z,2.00
2022-09-07T17:56:43.466Z,3.07
2022-09-07T18:02:00.922Z,2.30
2022-09-07T18:04:29.521Z,2.00
2022-09-07T18:06:58.753Z,2.20
2022-09-07T18:09:26.596Z,2.30
2022-09-07T18:11:54.439Z,2.00
2022-09-07T18:14:22.305Z,1.93
2022-09-07T18:16:51.039Z,1.77
2022-09-07T18:19:19.792Z,2.00
2022-09-07T18:21:48.666Z,1.60
2022-09-07T18:24:21.038Z,1.63
2022-09-07T18:26:52.095Z,1.90
2022-09-07T18:29:32.496Z,1.90
2022-09-07T18:32:04.767Z,1.87
2022-09-07T18:34:36.006Z,1.70
2022-09-07T18:37:04.571Z,1.43
2022-09-07T18:39:35.441Z,1.50
2022-09-07T18:42:03.583Z,1.83
2022-09-07T18:47:27.662Z,1.60
2022-09-07T18:49:56.172Z,2.20
2022-09-07T18:55:13.561Z,1.90
2022-09-07T18:57:41.775Z,2.00
2022-09-07T19:00:12.357Z,2.10
2022-09-07T19:02:40.381Z,1.87
2022-09-07T19:07:56.856Z,1.47
2022-09-07T19:10:26.175Z,2.00
2022-09-07T19:12:54.031Z,2.10
2022-09-07T19:15:23.706Z,2.80
2022-09-07T19:17:51.834Z,3.10
2022-09-07T19:20:19.828Z,3.50
2022-09-07T19:22:47.898Z,1.90
2022-09-07T19:25:17.320Z,2.50
2022-09-07T19:27:46.846Z,1.60
2022-09-07T19:30:15.575Z,1.73
2022-09-07T19:32:43.896Z,1.80
2022-09-07T19:35:12.013Z,1.70
2022-09-07T19:37:40.289Z,1.57
2022-09-07T19:40:13.530Z,1.63
2022-09-07T19:42:44.850Z,1.70
2022-09-07T19:45:15.144Z,1.70
2022-09-07T19:47:43.406Z,2.20
2022-09-07T19:50:11.589Z,2.40
2022-09-07T19:52:39.732Z,2.03
2022-09-07T19:55:08.761Z,1.70
2022-09-07T19:57:36.756Z,2.20
2022-09-07T20:00:05.826Z,1.90
2022-09-07T20:02:41.168Z,2.20
2022-09-07T20:05:09.881Z,2.00
2022-09-07T20:07:40.545Z,1.80
2022-09-07T20:10:09.093Z,1.77
2022-09-07T20:12:36.997Z,2.00
2022-09-07T20:15:05.357Z,2.33
2022-09-07T20:17:35.446Z,1.70
2022-09-07T20:20:06.523Z,1.80
2022-09-07T20:22:34.358Z,1.90
2022-09-07T20:25:02.199Z,1.70
2022-09-07T20:27:30.506Z,1.67
2022-09-07T20:29:58.324Z,1.90
2022-09-07T20:32:28.130Z,2.43
2022-09-07T20:34:56.341Z,1.80
2022-09-07T20:37:28.564Z,1.90
2022-09-07T20:39:56.485Z,1.30
2022-09-07T20:42:24.373Z,1.70
2022-09-07T20:44:53.404Z,1.67
2022-09-07T20:47:21.290Z,1.60
2022-09-07T20:49:49.299Z,1.70
2022-09-07T20:52:17.070Z,1.70
2022-09-07T20:54:46.589Z,1.80
2022-09-07T20:57:14.471Z,1.60
2022-09-07T20:59:42.376Z,1.87
2022-09-07T21:02:10.467Z,1.43
2022-09-07T21:04:38.482Z,1.60
2022-09-07T21:07:06.346Z,1.70
2022-09-07T21:09:34.295Z,1.60
2022-09-07T21:12:04.057Z,1.97
2022-09-07T21:14:32.147Z,1.80
2022-09-07T21:17:00.095Z,1.90
2022-09-07T21:19:28.032Z,2.10
2022-09-07T21:21:55.927Z,1.97
2022-09-07T21:24:24.736Z,1.70
2022-09-07T21:26:52.972Z,2.00
2022-09-07T21:29:24.211Z,1.80
2022-09-07T21:31:53.954Z,2.10
2022-09-07T21:34:22.491Z,1.93
2022-09-07T21:36:50.533Z,1.87
2022-09-07T21:39:19.257Z,1.70
2022-09-07T21:41:47.220Z,2.03
2022-09-07T21:44:16.439Z,1.80
2022-09-07T21:46:45.997Z,1.80
2022-09-07T21:49:14.455Z,1.63
2022-09-07T21:51:42.461Z,2.00
2022-09-07T21:54:10.503Z,1.80
2022-09-07T21:56:40.196Z,1.57
2022-09-07T21:59:11.241Z,1.87
2022-09-07T22:01:39.250Z,1.80
2022-09-07T22:04:08.503Z,1.60
2022-09-07T22:06:37.593Z,2.07
2022-09-07T22:09:06.050Z,2.10
2022-09-07T22:11:34.671Z,1.80
2022-09-07T22:14:03.918Z,3.40
2022-09-07T22:16:32.920Z,1.97
2022-09-07T22:19:01.585Z,2.23
2022-09-07T22:21:32.017Z,2.80
2022-09-07T22:24:01.768Z,2.20
2022-09-07T22:26:32.173Z,2.20
2022-09-07T22:29:00.201Z,2.20
2022-09-07T22:31:30.095Z,1.90
2022-09-07T22:33:59.538Z,2.90
2022-09-07T22:36:31.117Z,2.20
2022-09-07T22:39:01.119Z,2.10
2022-09-07T22:41:30.880Z,2.10
2022-09-07T22:43:58.911Z,2.20
2022-09-07T22:46:29.348Z,2.07
2022-09-07T22:48:58.470Z,1.97
2022-09-07T22:51:27.038Z,1.90
2022-09-07T22:53:57.525Z,2.20
2022-09-07T22:56:28.535Z,2.27
2022-09-07T22:58:58.912Z,2.20
2022-09-07T23:01:27.871Z,2.00
2022-09-07T23:03:56.834Z,2.00
2022-09-07T23:06:26.629Z,2.10
2022-09-07T23:08:57.442Z,1.83
2022-09-07T23:11:26.669Z,2.00
2022-09-07T23:13:56.069Z,1.90
2022-09-07T23:16:24.608Z,2.10
2022-09-07T23:18:52.796Z,2.17
2022-09-07T23:21:20.889Z,2.00
2022-09-07T23:23:53.139Z,2.17
2022-09-07T23:26:24.659Z,2.03
2022-09-07T23:28:53.530Z,2.30
2022-09-07T23:31:22.223Z,2.27
2022-09-07T23:33:50.586Z,2.00
2022-09-07T23:36:18.942Z,2.27
2022-09-07T23:38:47.313Z,2.10
2022-09-07T23:41:15.350Z,2.80
2022-09-07T23:43:45.032Z,2.07
2022-09-07T23:46:13.964Z,2.33
2022-09-07T23:48:43.376Z,2.33
2022-09-07T23:51:11.513Z,2.03
2022-09-07T23:53:39.905Z,2.40
2022-09-07T23:56:08.017Z,1.90
2022-09-07T23:58:36.070Z,2.50
